Dong Fang You 2 — BXEC — position and weather

sailwx.info

Track history (hours):
 
Tides and Currents Weather Stations Pressure Air Temp Water Temp Dewpoint Dewpoint Depression Visibility Wind Speed Wind Dir Waves Ship Positions

Dong Fang You 2

Last reported at 2016-May-24 05:31 UTC. Time now 2016-May-26 10:43 UTC.
Position N 21°03' E 110°38'.

Length 82 m; draft 4.2 m.

Type: Tanker. MMSI: 412464680.

Date/timePositionNaut miles runAvg speedWind from/ knotsBaromVisibWave heightAir tempDewpointWater temp
2016-May-24 05:31N 21°03' E 110°38'9 9.2
2016-May-24 04:31N 21°05' E 110°28'5 0.2
2016-May-23 06:32N 21°09' E 110°25'0 0.0
2016-May-23 05:29N 21°09' E 110°25'0 0.0
2016-May-23 03:32N 21°09' E 110°25'0 0.0
2016-May-23 00:14N 21°09' E 110°25'0 0.0
2016-May-22 23:08N 21°09' E 110°25'0 0.1
2016-May-22 22:14N 21°09' E 110°25'0 0.1
2016-May-22 21:26N 21°09' E 110°25'0 0.0
2016-May-22 17:29N 21°09' E 110°25'0 0.0
2016-May-22 16:14N 21°09' E 110°25'0 0.0
2016-May-22 09:14N 21°09' E 110°25'0 0.0
2016-May-22 07:08N 21°09' E 110°25'0 0.0
2016-May-22 06:32N 21°09' E 110°25'0 0.0
2016-May-22 03:17N 21°09' E 110°25'0 0.0
2016-May-21 21:32N 21°09' E 110°25'0 0.0
2016-May-21 19:14N 21°09' E 110°25'0 0.0
2016-May-21 18:17N 21°09' E 110°25'0 0.0
2016-May-21 17:11N 21°09' E 110°25'0 0.0
2016-May-21 07:30N 21°09' E 110°25'7 7.1
2016-May-21 06:33N 21°05' E 110°31'56 1.1
2016-May-19 04:15N 20°10' E 110°18'5 5.7
2016-May-19 03:21N 20°10' E 110°13'  
Track history (hours):
 
Tides and Currents Weather Stations Pressure Air Temp Water Temp Dewpoint Dewpoint Depression Visibility Wind Speed Wind Dir Waves Ship Positions

Dong Fang You 2

Last reported at 2016-May-24 05:31 UTC. Time now 2016-May-26 10:43 UTC.
Position N 21°03' E 110°38'.

Length 82 m; draft 4.2 m.

Type: Tanker. MMSI: 412464680.

Date/timePositionNaut miles runAvg speedWind from/ knotsBaromVisibWave heightAir tempDewpointWater temp
2016-May-24 05:31N 21°03' E 110°38'9 9.2
2016-May-24 04:31N 21°05' E 110°28'5 0.2
2016-May-23 06:32N 21°09' E 110°25'0 0.0
2016-May-23 05:29N 21°09' E 110°25'0 0.0
2016-May-23 03:32N 21°09' E 110°25'0 0.0
2016-May-23 00:14N 21°09' E 110°25'0 0.0
2016-May-22 23:08N 21°09' E 110°25'0 0.1
2016-May-22 22:14N 21°09' E 110°25'0 0.1
2016-May-22 21:26N 21°09' E 110°25'0 0.0
2016-May-22 17:29N 21°09' E 110°25'0 0.0
2016-May-22 16:14N 21°09' E 110°25'0 0.0
2016-May-22 09:14N 21°09' E 110°25'0 0.0
2016-May-22 07:08N 21°09' E 110°25'0 0.0
2016-May-22 06:32N 21°09' E 110°25'0 0.0
2016-May-22 03:17N 21°09' E 110°25'0 0.0
2016-May-21 21:32N 21°09' E 110°25'0 0.0
2016-May-21 19:14N 21°09' E 110°25'0 0.0
2016-May-21 18:17N 21°09' E 110°25'0 0.0
2016-May-21 17:11N 21°09' E 110°25'0 0.0
2016-May-21 07:30N 21°09' E 110°25'7 7.1
2016-May-21 06:33N 21°05' E 110°31'56 1.1
2016-May-19 04:15N 20°10' E 110°18'5 5.7
2016-May-19 03:21N 20°10' E 110°13'  

Dump ship's entire track history